Time;durP1;ratioP1;P1;durP2;ratioP2;P2;SDS_P1;SDS_P2;PMS_P1;PMS_P2;Temp;Humidity;BMP_temperature;BMP_pressure;BME280_temperature;BME280_humidity;BME280_pressure;Samples;Min_cycle;Max_cycle;Signal;HPM_P1;HPM_P2
2023/08/27 00:00:10;;;;;;;9.50;5.90;;;;;;;21.61;65.45;99195.23;78990;1301;3011576;-69
2023/08/27 00:02:44;;;;;;;10.90;5.00;;;;;;;21.59;65.42;99192.79;77838;1306;3057190;-65
2023/08/27 00:05:11;;;;;;;9.80;5.30;;;;;;;21.58;65.59;99195.22;79009;1302;3013649;-62
2023/08/27 00:07:37;;;;;;;14.30;5.70;;;;;;;21.59;65.49;99192.65;79265;1301;3011790;-67
2023/08/27 00:10:06;;;;;;;9.50;5.40;;;;;;;21.56;65.75;99190.98;77788;1306;3025991;-69
2023/08/27 00:12:33;;;;;;;13.10;5.60;;;;;;;21.54;65.90;99184.83;79200;1302;3012861;-68
2023/08/27 00:15:00;;;;;;;9.10;5.30;;;;;;;21.55;65.76;99186.80;79043;1307;3011601;-66
2023/08/27 00:17:27;;;;;;;12.00;5.60;;;;;;;21.50;66.07;99186.37;77792;1303;3056040;-64
2023/08/27 00:19:54;;;;;;;10.00;5.20;;;;;;;21.54;65.71;99184.27;79098;1301;3019236;-63
2023/08/27 00:22:21;;;;;;;8.20;5.50;;;;;;;21.53;65.76;99182.23;78931;1303;3013168;-66
2023/08/27 00:24:49;;;;;;;11.00;5.50;;;;;;;21.56;65.65;99181.96;77967;1305;3028106;-68
2023/08/27 00:27:16;;;;;;;13.60;5.90;;;;;;;21.58;65.51;99181.66;79090;1305;3012806;-69
2023/08/27 00:29:43;;;;;;;11.80;6.00;;;;;;;21.56;65.64;99180.09;79008;1301;3011478;-68
2023/08/27 00:32:11;;;;;;;13.60;5.70;;;;;;;21.56;65.74;99174.06;77805;1306;3028281;-66
2023/08/27 00:34:37;;;;;;;9.10;5.50;;;;;;;21.56;65.75;99176.98;78899;1306;3013565;-64
2023/08/27 00:37:04;;;;;;;9.90;5.50;;;;;;;21.56;65.71;99172.83;78945;1301;3011514;-65
2023/08/27 00:39:32;;;;;;;9.10;5.40;;;;;;;21.59;65.52;99173.88;77851;1307;3028188;-66
2023/08/27 00:41:58;;;;;;;11.00;5.30;;;;;;;21.61;65.31;99181.39;79027;1307;3013486;-68
2023/08/27 00:44:25;;;;;;;9.20;5.40;;;;;;;21.62;65.48;99189.23;79011;1302;3011575;-66
2023/08/27 00:46:53;;;;;;;11.20;5.80;;;;;;;21.70;64.93;99201.98;77814;1312;3026354;-67
2023/08/27 00:49:19;;;;;;;9.40;5.40;;;;;;;21.75;64.63;99207.21;78996;1302;3013227;-69
2023/08/27 00:51:48;;;;;;;13.50;5.00;;;;;;;21.81;64.45;99221.23;78803;1307;3011665;-65
2023/08/27 00:54:16;;;;;;;10.30;5.40;;;;;;;21.80;64.60;99232.20;77744;1306;3051864;-66
2023/08/27 00:56:46;;;;;;;9.70;5.60;;;;;;;21.70;65.09;99249.63;79084;1308;3013780;-63
2023/08/27 00:59:14;;;;;;;13.40;5.60;;;;;;;21.69;65.33;99242.02;77654;1306;3050468;-63
2023/08/27 01:01:42;;;;;;;9.70;5.60;;;;;;;21.54;67.69;99227.39;78990;1306;3019120;-68
2023/08/27 01:04:09;;;;;;;11.90;5.60;;;;;;;21.41;69.64;99228.84;79038;1307;3011810;-67
2023/08/27 01:06:37;;;;;;;8.50;4.90;;;;;;;21.93;70.02;99226.13;77747;1306;3050313;-64
2023/08/27 01:09:13;;;;;;;11.20;5.40;;;;;;;21.94;71.63;99230.95;79035;1315;3013690;-64
2023/08/27 01:11:53;;;;;;;12.80;5.80;;;;;;;21.65;72.91;99222.29;77686;1310;3069751;-68
2023/08/27 01:14:22;;;;;;;17.40;6.60;;;;;;;20.84;77.18;99207.19;77803;1305;3052167;-72
2023/08/27 01:16:48;;;;;;;10.50;5.20;;;;;;;20.58;77.32;99197.79;79056;1306;3013412;-68
2023/08/27 01:19:15;;;;;;;11.20;4.70;;;;;;;20.28;78.68;99188.85;78970;1306;3011597;-69
2023/08/27 01:21:44;;;;;;;9.60;5.00;;;;;;;20.65;78.97;99182.86;77856;1306;3049564;-67
2023/08/27 01:24:10;;;;;;;13.20;5.30;;;;;;;20.74;79.00;99179.79;79112;1305;3018823;-69
2023/08/27 01:26:39;;;;;;;10.10;5.70;;;;;;;20.61;79.61;99184.27;79055;1305;3012190;-67
2023/08/27 01:29:33;;;;;;;10.30;5.40;;;;;;;20.65;79.77;99176.09;77891;1307;3051210;-71
2023/08/27 01:32:07;;;;;;;10.70;4.80;;;;;;;20.81;79.57;99182.65;77796;1308;3057409;-70
2023/08/27 01:34:35;;;;;;;9.40;5.60;;;;;;;21.19;79.25;99178.10;79053;1301;3012383;-69
2023/08/27 01:37:03;;;;;;;7.40;4.90;;;;;;;21.18;78.99;99162.52;77870;1302;3053077;-68
2023/08/27 01:39:30;;;;;;;13.80;6.00;;;;;;;20.96;80.23;99150.88;79011;1310;3013552;-68
2023/08/27 01:41:58;;;;;;;13.40;6.30;;;;;;;20.91;81.48;99138.94;79074;1306;3013021;-66
2023/08/27 01:44:26;;;;;;;8.70;4.90;;;;;;;20.74;82.26;99139.39;77919;1301;3069665;-67
2023/08/27 01:46:52;;;;;;;10.80;5.10;;;;;;;20.85;81.69;99140.48;79044;1301;3013307;-68
2023/08/27 01:49:20;;;;;;;15.20;5.70;;;;;;;21.15;79.63;99136.73;79049;1303;3011729;-65
2023/08/27 01:51:48;;;;;;;14.50;6.30;;;;;;;21.19;78.95;99135.77;77730;1302;3054244;-66
2023/08/27 01:54:16;;;;;;;10.90;6.10;;;;;;;21.07;78.51;99137.05;78985;1315;3012644;-67
2023/08/27 01:56:43;;;;;;;10.40;5.60;;;;;;;20.86;78.59;99145.87;79029;1307;3011545;-64
2023/08/27 01:59:11;;;;;;;16.50;6.30;;;;;;;20.75;78.48;99141.80;77930;1304;3069703;-65
2023/08/27 02:01:37;;;;;;;9.60;4.60;;;;;;;20.61;79.70;99140.98;79074;1307;3013786;-70
2023/08/27 02:04:04;;;;;;;12.30;5.10;;;;;;;21.01;78.18;99141.46;78996;1305;3012864;-65
2023/08/27 02:06:32;;;;;;;8.70;5.10;;;;;;;21.34;76.58;99138.94;77625;1306;3028834;-67
2023/08/27 05:11:21;;;;;;;12.70;6.90;;;;;;;21.92;81.92;99098.58;80078;1299;3013520;-68
2023/08/27 05:13:48;;;;;;;13.30;7.20;;;;;;;21.89;81.64;99096.05;79120;1301;3013448;-67
2023/08/27 05:16:14;;;;;;;14.60;6.60;;;;;;;21.76;82.07;99099.20;78972;1301;3013029;-68
2023/08/27 05:18:42;;;;;;;8.20;5.30;;;;;;;21.62;83.13;99096.05;77942;1301;3052414;-70
2023/08/27 05:21:09;;;;;;;10.80;5.60;;;;;;;22.24;80.63;99093.13;79314;1306;3013117;-67
2023/08/27 05:23:36;;;;;;;11.20;5.60;;;;;;;22.45;79.15;99087.70;77284;1306;3011664;-67
2023/08/27 05:26:05;;;;;;;9.70;6.30;;;;;;;22.59;78.03;99088.63;77927;1298;3026163;-65
2023/08/27 05:28:31;;;;;;;14.20;6.90;;;;;;;22.44;78.59;99090.64;79344;1298;3012884;-67
2023/08/27 05:30:58;;;;;;;14.10;7.20;;;;;;;22.39;78.89;99101.02;79088;1297;3011638;-63
2023/08/27 05:33:26;;;;;;;13.30;5.80;;;;;;;22.34;79.12;99100.01;78085;1301;3052896;-68
2023/08/27 05:35:54;;;;;;;12.50;6.20;;;;;;;22.57;78.55;99098.61;79425;1303;3013763;-67
2023/08/27 05:38:21;;;;;;;14.40;6.70;;;;;;;22.89;76.84;99079.71;79237;1298;3011533;-67
2023/08/27 05:40:52;;;;;;;10.00;7.30;;;;;;;22.86;76.64;99080.99;78065;1304;3049558;-68
2023/08/27 05:43:20;;;;;;;13.70;7.80;;;;;;;22.68;76.68;99081.86;79269;1299;3011897;-66
2023/08/27 05:45:48;;;;;;;14.70;8.00;;;;;;;22.53;77.04;99089.27;78145;1299;3025968;-68
2023/08/27 05:48:16;;;;;;;13.60;7.70;;;;;;;22.57;77.89;99082.38;79306;1303;3012828;-69
2023/08/27 05:50:44;;;;;;;9.10;5.50;;;;;;;22.61;77.84;99089.61;79286;1301;3013679;-68
2023/08/27 05:53:14;;;;;;;9.70;6.40;;;;;;;22.90;76.68;99090.85;78134;1298;3051354;-69
2023/08/27 05:55:40;;;;;;;9.60;7.10;;;;;;;23.12;75.86;99095.81;79162;1298;3011828;-68
2023/08/27 05:58:08;;;;;;;17.40;7.30;;;;;;;23.19;75.99;99095.08;79457;1297;3011633;-73
2023/08/27 06:00:36;;;;;;;15.50;8.00;;;;;;;23.21;75.61;99098.63;78150;1297;3050070;-71
2023/08/27 06:03:04;;;;;;;15.40;8.60;;;;;;;23.02;76.95;99091.05;79340;1304;3018789;-71
2023/08/27 06:05:30;;;;;;;14.10;7.90;;;;;;;23.00;76.85;99081.45;79382;1301;3011507;-68
2023/08/27 06:08:02;;;;;;;12.10;6.60;;;;;;;22.89;77.47;99085.08;78110;1303;3049978;-68
2023/08/27 06:10:30;;;;;;;14.60;6.90;;;;;;;23.26;76.01;99087.83;79422;1303;3011590;-68
2023/08/27 06:12:59;;;;;;;15.50;7.50;;;;;;;23.84;73.72;99084.29;78509;1298;3049042;-68
2023/08/27 06:15:28;;;;;;;12.60;8.70;;;;;;;23.69;73.63;99079.65;79348;1297;3013448;-66
2023/08/27 06:18:02;;;;;;;12.30;7.90;;;;;;;23.46;74.80;99073.71;78124;1303;3052019;-70
2023/08/27 06:20:30;;;;;;;16.40;8.70;;;;;;;23.37;75.63;99071.75;79230;1301;3011835;-66
2023/08/27 06:22:58;;;;;;;15.20;9.70;;;;;;;23.33;76.09;99071.52;77945;1310;3069188;-70
2023/08/27 06:25:25;;;;;;;12.20;7.00;;;;;;;23.17;76.99;99064.05;79232;1298;3012967;-67
2023/08/27 06:27:54;;;;;;;15.70;8.40;;;;;;;23.53;75.51;99054.77;79306;1298;3011630;-68
2023/08/27 06:30:22;;;;;;;13.70;8.70;;;;;;;23.92;74.29;99055.91;78143;1297;3052576;-66
2023/08/27 06:32:50;;;;;;;18.10;9.30;;;;;;;23.98;74.06;99053.47;79412;1302;3012701;-73
2023/08/27 06:35:17;;;;;;;15.70;9.00;;;;;;;23.85;74.78;99050.17;79323;1298;3011655;-66
2023/08/27 06:37:45;;;;;;;15.40;9.40;;;;;;;23.68;75.51;99052.91;78034;1303;3068965;-70
2023/08/27 06:40:13;;;;;;;11.80;9.30;;;;;;;23.75;75.45;99058.18;79311;1301;3018645;-70
2023/08/27 06:42:41;;;;;;;13.50;8.10;;;;;;;23.75;75.61;99058.70;79253;1297;3013754;-71
2023/08/27 06:45:09;;;;;;;15.40;9.20;;;;;;;24.13;74.79;99055.11;78091;1298;3052368;-68
2023/08/27 06:47:36;;;;;;;14.30;8.90;;;;;;;24.32;73.60;99050.72;79468;1302;3012686;-68
2023/08/27 06:50:04;;;;;;;16.70;9.40;;;;;;;24.20;73.94;99054.23;79271;1303;3011931;-69
2023/08/27 06:52:32;;;;;;;18.50;9.70;;;;;;;24.08;74.35;99055.60;78126;1300;3068759;-68
2023/08/27 06:55:00;;;;;;;16.50;9.50;;;;;;;24.18;74.82;99049.22;79381;1300;3013560;-68
2023/08/27 06:57:27;;;;;;;14.10;9.60;;;;;;;24.33;74.36;99046.23;79251;1298;3011638;-67
2023/08/27 06:59:55;;;;;;;13.30;8.50;;;;;;;24.38;74.99;99036.55;78110;1298;3053860;-69
2023/08/27 07:02:22;;;;;;;13.80;9.70;;;;;;;24.71;73.43;99036.23;79308;1303;3013235;-66
2023/08/27 07:04:48;;;;;;;19.10;9.80;;;;;;;25.08;71.93;99032.95;79257;1303;3011406;-69
2023/08/27 07:07:16;;;;;;;14.50;9.20;;;;;;;24.96;72.20;99033.67;78107;1298;3026090;-69
2023/08/27 07:09:43;;;;;;;14.10;9.70;;;;;;;24.90;72.54;99037.88;79280;1298;3013667;-66
2023/08/27 07:12:09;;;;;;;15.80;10.40;;;;;;;24.87;73.27;99031.27;79234;1303;3011965;-70
2023/08/27 07:14:37;;;;;;;14.60;9.80;;;;;;;24.86;73.64;99030.71;78056;1303;3028227;-66
2023/08/27 07:17:04;;;;;;;16.20;10.00;;;;;;;24.81;73.81;99031.34;79291;1303;3013822;-67
2023/08/27 07:19:31;;;;;;;12.30;8.00;;;;;;;24.71;74.61;99030.56;79395;1303;3013231;-72
2023/08/27 07:21:59;;;;;;;13.20;9.20;;;;;;;25.35;72.66;99029.36;78161;1304;3025085;-70
2023/08/27 07:24:26;;;;;;;15.50;9.60;;;;;;;25.66;71.98;99030.20;79319;1298;3013408;-70
2023/08/27 07:26:52;;;;;;;14.00;8.80;;;;;;;25.63;72.07;99031.13;79279;1302;3013335;-68
2023/08/27 07:29:21;;;;;;;13.40;8.90;;;;;;;25.75;72.20;99034.27;78101;1302;3025887;-68
2023/08/27 07:31:47;;;;;;;14.10;8.70;;;;;;;25.73;71.97;99034.68;79345;1297;3018482;-69
2023/08/27 07:34:14;;;;;;;13.50;7.90;;;;;;;25.72;72.36;99036.63;79280;1303;3011688;-66
2023/08/27 07:36:42;;;;;;;13.60;7.70;;;;;;;25.76;72.79;99034.95;78155;1302;3028866;-69
2023/08/27 07:39:08;;;;;;;8.80;6.20;;;;;;;25.83;72.61;99036.08;79384;1298;3013608;-72
2023/08/27 07:41:35;;;;;;;12.50;6.80;;;;;;;26.36;71.07;99031.67;79277;1301;3011916;-71
2023/08/27 07:44:03;;;;;;;11.80;6.80;;;;;;;26.84;68.86;99038.11;78171;1302;3026010;-70
2023/08/27 07:46:30;;;;;;;13.60;7.20;;;;;;;26.90;67.86;99040.91;79515;1301;3013141;-72
2023/08/27 07:48:56;;;;;;;15.30;7.10;;;;;;;26.88;67.76;99037.77;79436;1300;3013261;-71
2023/08/27 07:51:24;;;;;;;11.20;7.30;;;;;;;26.89;66.76;99035.77;78116;1301;3027932;-70
2023/08/27 07:53:51;;;;;;;9.40;7.20;;;;;;;26.90;66.17;99036.61;79365;1297;3018519;-70
2023/08/27 07:56:18;;;;;;;12.80;6.90;;;;;;;26.77;66.24;99041.96;79329;1302;3012974;-68
2023/08/27 07:58:46;;;;;;;14.80;6.80;;;;;;;26.79;65.86;99040.64;78179;1298;3026349;-70
2023/08/27 08:01:12;;;;;;;11.80;7.00;;;;;;;26.76;65.99;99036.74;79366;1301;3013028;-72
2023/08/27 08:03:39;;;;;;;13.00;7.10;;;;;;;26.74;66.05;99047.02;79392;1300;3011591;-70
2023/08/27 08:06:07;;;;;;;14.80;7.60;;;;;;;26.78;66.27;99027.17;78129;1299;3028021;-72
2023/08/27 08:08:34;;;;;;;12.00;7.70;;;;;;;26.84;66.36;99033.96;79499;1300;3018514;-72
2023/08/27 08:11:01;;;;;;;17.00;7.30;;;;;;;26.86;65.76;99033.70;79583;1297;3011919;-67
2023/08/27 08:13:29;;;;;;;11.80;6.70;;;;;;;26.96;65.34;99027.84;78152;1298;3053527;-71
2023/08/27 08:15:55;;;;;;;12.10;7.00;;;;;;;27.03;65.12;99032.52;79437;1303;3013513;-73
2023/08/27 08:18:22;;;;;;;10.40;6.80;;;;;;;27.12;64.96;99034.15;79360;1300;3013714;-70
2023/08/27 08:20:55;;;;;;;11.20;7.00;;;;;;;27.17;63.95;99027.74;78227;1296;3026312;-73
2023/08/27 08:23:22;;;;;;;9.10;6.80;;;;;;;27.12;63.86;99033.08;79521;1295;3011634;-72
2023/08/27 08:25:50;;;;;;;11.20;6.80;;;;;;;27.22;63.67;99032.38;78244;1296;3055441;-71
2023/08/27 08:28:16;;;;;;;9.00;6.70;;;;;;;27.24;62.90;99034.19;79429;1296;3012824;-72
2023/08/27 08:30:48;;;;;;;7.80;6.60;;;;;;;27.32;62.92;99022.88;79393;1295;3011862;-68
2023/08/27 08:33:16;;;;;;;12.30;6.40;;;;;;;27.46;61.98;99022.23;78222;1301;3052801;-69
2023/08/27 08:35:43;;;;;;;9.40;6.40;;;;;;;27.54;61.67;99029.25;79501;1301;3013347;-70
2023/08/27 08:38:10;;;;;;;11.00;7.00;;;;;;;27.61;61.48;99017.31;79496;1299;3013115;-69
2023/08/27 08:40:44;;;;;;;11.50;6.70;;;;;;;27.69;60.89;99024.23;78185;1295;3056688;-71
2023/08/27 08:43:47;;;;;;;11.40;6.30;;;;;;;27.70;61.07;99011.21;78940;1298;3011864;-70
2023/08/27 08:46:17;;;;;;;9.70;6.50;;;;;;;27.84;61.14;99007.80;78254;1301;3049882;-69
2023/08/27 08:48:47;;;;;;;10.10;6.70;;;;;;;27.80;60.21;99020.58;79449;1298;3012956;-71
2023/08/27 08:51:15;;;;;;;9.10;6.00;;;;;;;27.87;60.20;99003.09;78184;1296;3050514;-69
2023/08/27 08:53:44;;;;;;;7.80;6.40;;;;;;;27.92;60.04;99012.08;79426;1301;3013682;-73
2023/08/27 08:56:14;;;;;;;18.10;6.90;;;;;;;27.95;60.05;99002.79;79450;1297;3011646;-74
2023/08/27 08:58:43;;;;;;;10.00;6.80;;;;;;;28.05;60.18;99001.10;78219;1300;3050728;-72
2023/08/27 09:01:10;;;;;;;9.90;6.80;;;;;;;28.13;59.71;98992.81;79482;1296;3011428;-71
2023/08/27 09:03:36;;;;;;;14.50;7.20;;;;;;;28.22;59.82;98986.67;79497;1296;3011614;-74
2023/08/27 09:06:04;;;;;;;13.70;6.20;;;;;;;28.29;59.56;99000.97;78283;1296;3049128;-70
2023/08/27 09:08:31;;;;;;;12.50;6.60;;;;;;;28.28;59.06;98996.23;79355;1304;3018496;-73
2023/08/27 09:10:58;;;;;;;8.60;7.00;;;;;;;28.38;59.28;98992.61;79396;1303;3011691;-70
2023/08/27 09:13:26;;;;;;;12.40;6.70;;;;;;;28.49;58.92;98986.91;78211;1298;3049952;-69
2023/08/27 09:15:53;;;;;;;11.70;6.10;;;;;;;28.52;58.37;98987.25;79305;1297;3013470;-74
2023/08/27 09:18:19;;;;;;;9.70;5.90;;;;;;;28.57;57.97;98985.04;79355;1301;3011621;-72
2023/08/27 09:20:47;;;;;;;9.60;6.30;;;;;;;28.53;57.85;98986.70;78193;1300;3026490;-69
2023/08/27 09:23:43;;;;;;;10.40;6.50;;;;;;;28.56;57.77;98985.84;79461;1300;3020740;-67
2023/08/27 09:26:23;;;;;;;11.30;6.10;;;;;;;28.75;58.20;98971.64;78043;1298;3069428;-65
2023/08/27 09:28:50;;;;;;;11.60;6.30;;;;;;;28.89;57.94;98979.34;79420;1298;3012986;-71
2023/08/27 09:31:40;;;;;;;15.60;6.40;;;;;;;28.93;56.81;98983.84;79327;1302;3013126;-66
2023/08/27 09:34:09;;;;;;;15.20;6.10;;;;;;;29.04;57.04;98975.23;78198;1302;3053569;-67
2023/08/27 09:36:37;;;;;;;12.00;6.70;;;;;;;29.23;57.19;98965.20;79363;1300;3013138;-68
2023/08/27 09:39:10;;;;;;;9.60;6.00;;;;;;;29.32;57.04;98974.77;79453;1297;3011769;-67
2023/08/27 09:41:40;;;;;;;12.60;5.70;;;;;;;29.30;56.09;98973.02;78167;1297;3069820;-66
2023/08/27 09:44:07;;;;;;;11.60;6.20;;;;;;;29.39;56.35;98970.91;79437;1297;3012788;-69
2023/08/27 09:46:34;;;;;;;9.70;5.60;;;;;;;29.49;55.92;98963.21;79260;1297;3011759;-64
2023/08/27 09:49:06;;;;;;;16.00;5.80;;;;;;;29.59;55.99;98963.38;78144;1301;3053293;-65
2023/08/27 09:51:37;;;;;;;12.30;6.80;;;;;;;29.68;55.84;98956.67;79360;1297;3011632;-64
2023/08/27 09:54:28;;;;;;;12.40;6.60;;;;;;;29.58;55.26;98956.30;78259;1301;3052635;-68
2023/08/27 09:56:59;;;;;;;7.20;5.80;;;;;;;29.54;54.80;98964.23;78137;1300;3052668;-64
2023/08/27 09:59:26;;;;;;;10.00;5.50;;;;;;;29.60;54.13;98971.10;79477;1296;3011646;-64
2023/08/27 10:01:55;;;;;;;10.30;5.40;;;;;;;29.68;54.11;98967.56;78921;1296;3011899;-63
2023/08/27 10:04:22;;;;;;;12.50;6.50;;;;;;;29.79;53.86;98961.98;79459;1296;3018731;-68
2023/08/27 10:06:48;;;;;;;11.30;6.40;;;;;;;29.90;53.75;98966.15;79467;1296;3011487;-67
2023/08/27 10:09:16;;;;;;;10.40;6.30;;;;;;;29.98;53.13;98956.70;78245;1300;3028702;-66
2023/08/27 10:11:45;;;;;;;11.70;6.50;;;;;;;30.00;52.94;98962.08;79497;1299;3013286;-65
2023/08/27 10:14:11;;;;;;;9.80;6.00;;;;;;;29.97;52.55;98963.63;79410;1298;3011759;-65
2023/08/27 10:16:39;;;;;;;10.30;5.90;;;;;;;30.01;52.51;98957.39;78079;1301;3052397;-68
2023/08/27 10:19:06;;;;;;;13.20;6.50;;;;;;;30.15;52.48;98950.80;79257;1298;3018495;-66
2023/08/27 10:21:32;;;;;;;7.70;6.30;;;;;;;30.29;52.18;98955.52;79545;1300;3013187;-63
2023/08/27 10:24:00;;;;;;;11.60;5.50;;;;;;;30.42;51.38;98958.68;78087;1297;3028762;-67
2023/08/27 10:26:27;;;;;;;13.00;6.00;;;;;;;30.56;50.40;98956.43;79361;1297;3013469;-68
2023/08/27 10:28:54;;;;;;;12.30;6.50;;;;;;;30.62;50.40;98952.66;79084;1303;3011628;-69
2023/08/27 10:31:22;;;;;;;13.90;6.40;;;;;;;30.68;50.70;98948.98;77989;1302;3029191;-63
2023/08/27 10:33:49;;;;;;;15.60;6.10;;;;;;;30.77;50.88;98947.34;79340;1300;3013009;-64
2023/08/27 10:36:25;;;;;;;12.60;5.90;;;;;;;30.86;50.02;98950.35;79282;1297;3011814;-64
2023/08/27 10:38:53;;;;;;;8.30;5.70;;;;;;;30.79;48.76;98945.80;78276;1297;3049872;-67
2023/08/27 10:41:23;;;;;;;9.90;6.10;;;;;;;30.92;49.09;98941.31;79441;1300;3013691;-66
2023/08/27 10:43:51;;;;;;;11.00;6.50;;;;;;;30.86;49.47;98941.58;78177;1298;3068597;-65
2023/08/27 10:46:20;;;;;;;10.30;5.70;;;;;;;30.91;49.60;98940.00;79390;1297;3013096;-64
2023/08/27 10:48:50;;;;;;;11.20;6.80;;;;;;;30.89;49.44;98935.73;79252;1296;3012361;-65
2023/08/27 10:51:21;;;;;;;8.60;5.40;;;;;;;31.00;48.19;98933.34;78161;1297;3053993;-64
2023/08/27 10:53:50;;;;;;;11.20;5.80;;;;;;;30.98;47.36;98932.80;79408;1297;3013043;-64
2023/08/27 10:56:35;;;;;;;9.80;5.80;;;;;;;31.09;47.21;98923.80;78115;1300;3025999;-64
2023/08/27 10:59:10;;;;;;;11.40;5.90;;;;;;;31.35;46.73;98919.14;78047;1300;3052629;-62
2023/08/27 11:01:59;;;;;;;11.00;5.80;;;;;;;31.52;46.81;98916.73;78045;1300;3068458;-65
2023/08/27 11:04:38;;;;;;;8.50;5.70;;;;;;;31.65;46.57;98918.71;78277;1297;3051756;-66
2023/08/27 11:07:14;;;;;;;8.50;6.20;;;;;;;31.73;47.09;98919.58;78156;1300;3057839;-66
2023/08/27 11:09:46;;;;;;;11.30;5.80;;;;;;;31.77;46.87;98921.96;77939;1300;3041286;-64
2023/08/27 11:12:37;;;;;;;10.10;5.90;;;;;;;31.74;46.30;98917.90;79376;1300;3013444;-65
2023/08/27 11:15:12;;;;;;;15.80;6.50;;;;;;;31.74;46.13;98909.55;78146;1297;3049466;-68
2023/08/27 11:17:41;;;;;;;13.60;6.60;;;;;;;31.80;45.55;98910.68;78674;1297;3013516;-65
2023/08/27 11:20:25;;;;;;;11.90;6.40;;;;;;;31.64;45.41;98908.94;79240;1300;3013975;-67
2023/08/27 11:23:00;;;;;;;9.40;5.90;;;;;;;31.57;45.65;98905.46;78164;1302;3068961;-67
2023/08/27 11:25:30;;;;;;;9.50;6.40;;;;;;;31.71;45.94;98904.11;78751;1297;3011823;-62
2023/08/27 11:28:00;;;;;;;12.50;6.40;;;;;;;31.96;45.89;98900.42;79241;1297;3014069;-64
2023/08/27 11:30:28;;;;;;;16.90;6.40;;;;;;;32.09;45.72;98896.48;78088;1300;3049303;-65
2023/08/27 11:32:55;;;;;;;10.90;6.20;;;;;;;32.24;45.95;98892.39;79214;1300;3018785;-64
2023/08/27 11:35:23;;;;;;;9.00;6.60;;;;;;;32.37;45.53;98892.13;79160;1300;3013037;-64
2023/08/27 11:37:51;;;;;;;13.20;6.40;;;;;;;32.35;44.80;98895.45;78210;1300;3052578;-64
2023/08/27 11:40:19;;;;;;;18.80;6.60;;;;;;;32.27;43.78;98900.94;79313;1297;3012911;-65
2023/08/27 11:42:53;;;;;;;12.40;6.70;;;;;;;31.94;43.78;98907.95;79318;1297;3012712;-63
2023/08/27 11:45:40;;;;;;;14.60;7.00;;;;;;;31.74;44.48;98902.41;77929;1297;3048747;-63
2023/08/27 11:48:08;;;;;;;13.10;6.70;;;;;;;31.91;44.65;98891.85;78141;1297;3054104;-61
2023/08/27 11:50:38;;;;;;;13.40;7.10;;;;;;;31.98;44.27;98894.77;79319;1300;3011769;-62
2023/08/27 11:53:04;;;;;;;9.90;6.30;;;;;;;32.12;43.94;98889.79;79418;1300;3011547;-63
2023/08/27 11:55:32;;;;;;;13.70;7.00;;;;;;;32.23;43.58;98891.20;77970;1300;3068267;-64
2023/08/27 11:58:00;;;;;;;16.10;6.60;;;;;;;32.16;43.10;98892.35;79107;1297;3018242;-68
2023/08/27 12:00:27;;;;;;;17.30;6.70;;;;;;;32.20;42.84;98886.98;79201;1298;3012372;-63
2023/08/27 12:02:55;;;;;;;15.00;7.30;;;;;;;32.24;42.76;98882.98;77953;1297;3052851;-64
2023/08/27 12:05:22;;;;;;;12.20;7.30;;;;;;;32.36;42.71;98883.72;79338;1303;3018664;-64
2023/08/27 12:07:49;;;;;;;11.80;6.70;;;;;;;32.41;42.47;98886.73;79180;1300;3013666;-64
2023/08/27 12:10:17;;;;;;;12.40;6.30;;;;;;;32.31;42.40;98883.71;78132;1300;3025969;-66
2023/08/27 12:12:47;;;;;;;8.70;6.10;;;;;;;32.38;42.33;98880.45;79196;1297;3013402;-64
2023/08/27 12:15:16;;;;;;;11.10;5.90;;;;;;;32.37;42.19;98880.34;78933;1297;3011636;-65
2023/08/27 12:17:42;;;;;;;15.20;6.40;;;;;;;32.51;42.22;98874.10;79421;1298;3013044;-64
2023/08/27 12:20:10;;;;;;;13.20;6.00;;;;;;;32.64;41.88;98873.41;79174;1297;3013218;-63
2023/08/27 12:22:44;;;;;;;13.40;6.40;;;;;;;32.73;41.56;98876.58;78112;1297;3052443;-63
2023/08/27 12:25:11;;;;;;;12.30;6.50;;;;;;;32.71;41.20;98867.07;79229;1300;3011883;-61
2023/08/27 12:27:42;;;;;;;10.80;6.50;;;;;;;32.84;41.49;98864.63;78167;1297;3060119;-65
2023/08/27 12:30:12;;;;;;;9.30;6.30;;;;;;;33.09;41.06;98857.52;79232;1298;3012741;-66
2023/08/27 12:32:40;;;;;;;10.40;6.10;;;;;;;33.06;40.86;98866.14;78203;1296;3057180;-62
2023/08/27 12:35:07;;;;;;;13.40;6.50;;;;;;;32.96;41.04;98862.39;79218;1298;3012838;-63
2023/08/27 12:37:34;;;;;;;13.50;6.70;;;;;;;32.99;41.18;98857.02;79117;1297;3011839;-62
2023/08/27 12:40:02;;;;;;;15.30;6.60;;;;;;;33.23;40.73;98860.13;78063;1298;3028956;-65
2023/08/27 12:42:29;;;;;;;15.80;6.60;;;;;;;33.49;40.36;98853.79;79307;1300;3013134;-64
2023/08/27 12:44:55;;;;;;;13.10;6.80;;;;;;;33.60;40.17;98847.17;79350;1300;3011887;-63
2023/08/27 12:47:23;;;;;;;7.30;6.00;;;;;;;33.58;39.94;98844.77;77970;1295;3054899;-62
2023/08/27 12:49:50;;;;;;;12.80;6.30;;;;;;;33.59;39.90;98838.73;79367;1297;3013247;-62
2023/08/27 12:52:17;;;;;;;10.60;6.30;;;;;;;33.60;39.69;98839.86;79165;1298;3011597;-63
2023/08/27 12:54:45;;;;;;;10.80;6.30;;;;;;;33.37;39.45;98843.13;78425;1300;3017340;-64
2023/08/27 12:57:11;;;;;;;13.20;6.30;;;;;;;33.44;39.81;98847.05;79540;1300;3012956;-64
2023/08/27 12:59:38;;;;;;;13.40;6.50;;;;;;;33.64;39.89;98836.64;79288;1300;3011750;-62
2023/08/27 13:02:07;;;;;;;12.40;6.50;;;;;;;33.57;40.02;98837.64;78017;1300;3028451;-64
2023/08/27 13:04:33;;;;;;;10.60;6.70;;;;;;;33.62;39.99;98840.73;79318;1297;3013353;-63
2023/08/27 13:07:00;;;;;;;13.50;7.10;;;;;;;33.75;39.96;98833.27;79450;1296;3011644;-64
2023/08/27 13:09:28;;;;;;;19.30;7.50;;;;;;;33.97;39.70;98834.85;78152;1300;3052123;-62
2023/08/27 13:11:55;;;;;;;12.00;6.50;;;;;;;34.05;39.25;98836.76;79188;1297;3018617;-64
2023/08/27 13:14:21;;;;;;;15.70;7.50;;;;;;;33.82;39.33;98839.09;79240;1300;3011963;-65
2023/08/27 13:16:49;;;;;;;11.00;7.80;;;;;;;33.80;39.26;98836.52;80673;1296;3026026;-67
2023/08/27 13:19:16;;;;;;;15.10;8.00;;;;;;;33.72;39.51;98839.16;81928;1297;3012777;-61
2023/08/27 13:21:45;;;;;;;14.10;6.90;;;;;;;33.79;39.29;98843.25;81931;1297;3011292;-66
2023/08/27 13:24:13;;;;;;;11.80;6.90;;;;;;;33.94;38.39;98840.16;80672;1298;3051877;-68
2023/08/27 13:26:39;;;;;;;14.10;7.10;;;;;;;34.01;38.68;98840.53;81964;1296;3018113;-65
2023/08/27 13:29:06;;;;;;;13.70;8.30;;;;;;;34.20;38.32;98836.73;81901;1297;3011376;-65
2023/08/27 13:31:34;;;;;;;16.80;8.00;;;;;;;34.27;38.49;98837.64;80667;1297;3025187;-66
2023/08/27 13:34:00;;;;;;;17.00;7.60;;;;;;;34.16;38.17;98833.27;81971;1296;3018328;-66
2023/08/27 13:36:27;;;;;;;18.00;7.40;;;;;;;34.28;38.51;98826.92;81913;1297;3011653;-67
2023/08/27 13:38:55;;;;;;;14.80;6.10;;;;;;;34.56;37.79;98829.52;80681;1297;3017808;-66
2023/08/27 13:41:21;;;;;;;13.20;5.90;;;;;;;34.75;37.11;98833.13;81944;1296;3012333;-66
2023/08/27 13:43:48;;;;;;;8.40;5.80;;;;;;;34.77;36.65;98829.71;81919;1297;3011127;-64
2023/08/27 13:46:15;;;;;;;8.60;5.40;;;;;;;34.66;36.72;98830.86;80686;1297;3026823;-62
2023/08/27 13:48:42;;;;;;;9.30;5.10;;;;;;;34.65;36.07;98825.52;81956;1295;3013423;-64
2023/08/27 13:51:09;;;;;;;9.00;4.80;;;;;;;34.50;35.98;98824.80;81918;1297;3011390;-65
2023/08/27 13:53:37;;;;;;;9.80;5.10;;;;;;;34.51;36.26;98825.30;80652;1299;3026681;-66
2023/08/27 13:56:04;;;;;;;10.20;4.90;;;;;;;34.62;35.75;98822.61;81966;1297;3011292;-63
2023/08/27 13:58:30;;;;;;;7.80;4.50;;;;;;;34.77;35.72;98821.50;81921;1296;3011317;-65
2023/08/27 14:00:58;;;;;;;9.30;4.70;;;;;;;34.70;34.92;98825.14;80689;1295;3026054;-65
2023/08/27 14:03:25;;;;;;;8.00;4.70;;;;;;;34.86;35.05;98821.19;81927;1296;3012621;-66
2023/08/27 14:05:51;;;;;;;11.00;5.20;;;;;;;35.12;35.10;98821.50;81947;1297;3011349;-64
2023/08/27 14:08:26;;;;;;;6.40;4.50;;;;;;;35.43;34.82;98819.55;80653;1300;3025837;-62
2023/08/27 14:10:55;;;;;;;13.00;5.50;;;;;;;35.65;34.81;98814.62;81445;1297;3011373;-63
2023/08/27 14:13:21;;;;;;;10.60;5.40;;;;;;;35.88;34.46;98814.07;81936;1297;3012710;-65
2023/08/27 14:15:48;;;;;;;10.90;4.80;;;;;;;35.74;34.24;98818.27;81906;1296;3011235;-63
2023/08/27 14:18:16;;;;;;;8.20;4.90;;;;;;;35.78;34.21;98817.52;80660;1297;3017435;-64
2023/08/27 14:20:43;;;;;;;11.60;5.30;;;;;;;35.87;34.34;98814.67;81901;1297;3012457;-63